Observations for Trim Patrick St
| Time | AQI | Temp °C | Hum % | Pres Pa | CO μg/m³ | H₂S μg/m³ | NO μg/m³ | NO₂ μg/m³ | O₃ μg/m³ | SO₂ μg/m³ | PM1 μg/m³ | PM2.5 μg/m³ | PM10 μg/m³ |
|---|---|---|---|---|---|---|---|---|---|---|---|---|---|
| Friday 28 August 2026 | |||||||||||||
| 01:37 | 3 | 16.8 | 88 | 38,460 | 0.16 | 2.36 | 1.63 | 14.14 | 32.33 | 0 | 11.43 | 15.68 | 17.25 |
| 01:36 | 3 | 16.8 | 88 | 38,460 | 0.14 | 1.94 | 1.8 | 14.03 | 32.44 | 0 | 12.29 | 20.47 | 22.52 |
| 01:35 | 3 | 16.8 | 88 | 38,460 | 0.14 | 2.15 | 1.49 | 14.03 | 35.61 | 0 | 12.29 | 17.05 | 18.75 |
| 01:34 | 3 | 16.8 | 88 | 38,460 | 0.13 | 1.13 | 1.5 | 13.1 | 36.43 | 0 | 11.43 | 17.73 | 19.51 |
| 01:33 | 3 | 16.8 | 88 | 38,460 | 0.14 | 0.45 | 1.52 | 12.14 | 39.76 | 0 | 12.29 | 19.1 | 21.01 |
| 01:32 | 3 | 16.8 | 88 | 38,460 | 0.13 | 0.76 | 1.5 | 12.14 | 39.11 | 0 | 10.57 | 15.68 | 17.25 |
| 01:31 | 3 | 16.8 | 88 | 38,460 | 0.13 | 1.47 | 1.54 | 12.14 | 39.44 | 0 | 13.14 | 18.42 | 20.26 |
| 01:30 | 3 | 16.9 | 88 | 38,460 | 0.13 | 2.64 | 1.58 | 14.34 | 36.09 | 0 | 10.57 | 16.36 | 18 |
| 01:28 | 3 | 16.9 | 87 | 38,460 | 0.13 | 1.62 | 1.51 | 12.79 | 38.81 | 0 | 12.29 | 18.43 | 20.27 |
| 01:27 | 3 | 16.8 | 87 | 38,460 | 0.13 | 2.36 | 1.55 | 14.12 | 36.06 | 0 | 12.29 | 17.74 | 19.52 |
| 01:26 | 3 | 16.9 | 87 | 38,460 | 0.14 | 1.76 | 1.57 | 12.79 | 36.4 | 0 | 12.29 | 16.37 | 18.01 |
| 01:25 | 3 | 16.9 | 87 | 38,460 | 0.13 | 0.84 | 1.59 | 12.58 | 37.16 | 0 | 12.29 | 17.74 | 19.52 |
| 01:24 | 3 | 16.9 | 87 | 38,460 | 0.13 | 1.18 | 1.62 | 12.9 | 39.11 | 0 | 10.57 | 16.37 | 18.01 |
| 01:23 | 3 | 16.9 | 87 | 38,460 | 0.12 | 0.55 | 1.46 | 12.04 | 38.78 | 0 | 11.43 | 15.69 | 17.26 |
| 01:21 | 3 | 16.9 | 87 | 38,460 | 0.12 | 1.99 | 1.13 | 12.9 | 40.19 | 0 | 11.43 | 17.06 | 18.76 |
| 01:18 | 3 | 16.9 | 87 | 38,460 | 0.13 | 1.36 | 1.24 | 12.58 | 38.5 | 0 | 10.57 | 18.43 | 20.27 |
| 01:17 | 3 | 16.9 | 87 | 38,460 | 0.13 | 1.36 | 1.26 | 11.92 | 41.03 | 0 | 10.57 | 16.38 | 18.02 |
| 01:16 | 3 | 16.9 | 87 | 38,460 | 0.12 | 1.49 | 1.23 | 14.78 | 30.67 | 0 | 11.43 | 17.07 | 18.78 |
| 01:15 | 3 | 16.9 | 87 | 38,460 | 0.13 | 0.47 | 1.15 | 11.51 | 40.5 | 0 | 12.29 | 18.44 | 20.28 |
| 01:13 | 3 | 16.9 | 87 | 38,460 | 0.13 | 0.71 | 1.47 | 12.13 | 40.75 | 0 | 10.57 | 17.07 | 18.78 |